Search for airport 
image banner adimage banner adimage banner ad
image banner ad

CA28 - Riverside County Rgnl Medical Center

Located in Moreno Valley, United States

ICAO - CA28, IATA -

Data provided by Airmate  

General information

Coordinates: N33°54'47" W117°11'47"
Elevation is 1563 feet MSL.
Magnetic variation is 14° East
View others Airports in California

Operational data

Special qualification required
Current time UTC:
Current local time:
Weather at : KRIV - March Arb ( 7 km )
METAR: KRIV 270556Z AUTO 31004KT 10SM SCT180 20/17 A3000 RMK AO2 SLP148 T02020166 10294 20202 51014
TAF: TAF KRIV 270406Z 2704/2810 30006KT 9999 FEW120 SCT150 QNH2996INS BECMG 2712/2713 VRB04KT 4800 BR FEW003 FEW120 QNH2997INS BECMG 2714/2715 VRB06KT 9999 NSW FEW120 QNH3000INS BECMG 2718/2719 31009KT 9999 FEW120 SCT250 QNH2996INS TS OMTNS NE AND SE TEMPO 2721/2802 32012G18KT BECMG 2803/2804 31006KT 9999 FEW250 QNH3000INS TX34/2722Z TN19/2713Z
View NOTAMs / SUP AIP / TFR affecting this airport [VIEW]
Communications frequencies: [VIEW]

Runways:

Airport contact information

Address: Moreno Valley United States

Satellite view of CA28